Time;durP1;ratioP1;P1;durP2;ratioP2;P2;SDS_P1;SDS_P2;PMS_P1;PMS_P2;Temp;Humidity;BMP_temperature;BMP_pressure;BME280_temperature;BME280_humidity;BME280_pressure;Samples;Min_cycle;Max_cycle;Signal;HPM_P1;HPM_P2
2022/02/09 08:38:06;;;;;;;9.32;4.25;;;;;;;;;;6186771;23;20025;-81
2022/02/09 08:40:32;;;;;;;12.55;4.15;;;;;;;;;;6185666;23;20013;-83
2022/02/09 08:42:59;;;;;;;6.15;3.40;;;;;;;;;;6187084;23;20032;-84
2022/02/09 10:34:12;;;;;;;6.72;5.88;;;;;;;;;;6196075;23;20071;-87
2022/02/09 10:36:55;;;;;;;6.85;6.07;;;;;;;;;;6184458;23;20001;-84
2022/02/09 10:39:26;;;;;;;8.65;6.32;;;;;;;;;;6186112;23;20005;-84
2022/02/09 10:42:04;;;;;;;8.00;7.13;;;;;;;;;;6186108;23;20016;-85
2022/02/09 10:44:46;;;;;;;7.90;6.82;;;;;;;;;;6186273;23;20001;-85
2022/02/09 10:47:23;;;;;;;8.05;7.28;;;;;;;;;;6185982;23;20008;-86
2022/02/09 10:50:18;;;;;;;10.55;7.68;;;;;;;;;;6163232;23;20447;-85
2022/02/09 10:52:49;;;;;;;9.13;8.23;;;;;;;;;;6186075;23;20412;-86
2022/02/09 10:55:30;;;;;;;10.35;8.32;;;;;;;;;;6186133;23;20005;-86
2022/02/09 10:57:56;;;;;;;12.68;8.63;;;;;;;;;;6186227;23;20028;-88
2022/02/09 11:00:23;;;;;;;6.95;6.35;;;;;;;;;;6184758;23;20383;-86
2022/02/09 11:02:50;;;;;;;9.13;8.20;;;;;;;;;;6184800;23;20417;-85
2022/02/09 11:05:19;;;;;;;8.55;7.65;;;;;;;;;;6184659;23;20063;-86
2022/02/09 11:07:45;;;;;;;9.38;8.02;;;;;;;;;;6184714;23;20049;-86
2022/02/09 11:10:10;;;;;;;8.65;7.68;;;;;;;;;;6186082;23;20009;-86
2022/02/09 11:12:37;;;;;;;10.75;7.22;;;;;;;;;;6186682;23;20443;-85
2022/02/09 11:15:05;;;;;;;9.68;7.40;;;;;;;;;;6184472;23;20439;-83
2022/02/09 11:17:32;;;;;;;10.35;8.15;;;;;;;;;;6186087;23;20377;-85
2022/02/09 11:19:58;;;;;;;9.63;8.40;;;;;;;;;;6185648;23;20054;-84
2022/02/09 11:22:28;;;;;;;11.70;9.10;;;;;;;;;;6185827;23;20005;-84
2022/02/09 11:25:14;;;;;;;11.13;9.32;;;;;;;;;;6186674;23;20001;-85
2022/02/09 11:27:47;;;;;;;11.85;9.77;;;;;;;;;;6188121;23;20400;-83
2022/02/09 11:30:42;;;;;;;10.43;8.23;;;;;;;;;;6185775;23;20005;-84
2022/02/09 11:33:27;;;;;;;13.13;8.30;;;;;;;;;;6185388;23;20005;-84
2022/02/09 11:36:17;;;;;;;9.65;8.63;;;;;;;;;;6187502;23;20028;-82
2022/02/09 11:38:47;;;;;;;10.05;8.80;;;;;;;;;;6187665;23;20320;-83
2022/02/09 11:41:21;;;;;;;10.93;8.98;;;;;;;;;;6187701;23;20001;-83
2022/02/09 11:44:15;;;;;;;12.13;9.60;;;;;;;;;;6187984;23;20009;-82
2022/02/09 11:55:01;;;;;;;10.00;8.15;;;;;;;;;;6187679;23;20016;-82
2022/02/09 11:58:40;;;;;;;11.80;9.18;;;;;;;;;;6188300;23;20055;-82
2022/02/09 12:12:11;;;;;;;11.15;8.18;;;;;;;;;;6187241;23;20013;-83
2022/02/09 12:20:24;;;;;;;9.65;8.15;;;;;;;;;;6197477;23;20009;-82
2022/02/09 12:23:14;;;;;;;14.38;10.38;;;;;;;;;;6187013;23;20071;-83
2022/02/09 12:25:43;;;;;;;;;;;;;;;;;;6186018;23;20009;-83
2022/02/09 12:28:28;;;;;;;11.82;9.68;;;;;;;;;;6186994;23;19909;-83
2022/02/09 12:31:13;;;;;;;14.15;10.63;;;;;;;;;;6187101;23;20009;-83
2022/02/09 12:33:58;;;;;;;13.02;9.93;;;;;;;;;;6185325;23;20020;-86
2022/02/09 12:36:29;;;;;;;11.43;9.80;;;;;;;;;;6185796;23;20035;-86
2022/02/09 12:38:58;;;;;;;11.40;9.95;;;;;;;;;;6187092;23;20012;-84
2022/02/09 12:41:24;;;;;;;;;;;;;;;;;;6185762;23;20005;-85
2022/02/09 12:44:01;;;;;;;10.88;9.63;;;;;;;;;;6186957;23;19908;-84
2022/02/09 17:53:30;;;;;;;9.88;6.53;;;;;;;;;;6157272;23;20097;-85
2022/02/09 17:56:14;;;;;;;15.40;9.05;;;;;;;;;;6154954;23;20005;-85
2022/02/09 17:58:51;;;;;;;11.65;7.28;;;;;;;;;;6156306;23;20089;-85
2022/02/09 18:01:19;;;;;;;9.95;6.75;;;;;;;;;;6156651;23;20425;-86
2022/02/09 18:03:45;;;;;;;9.50;7.00;;;;;;;;;;6154961;23;20006;-85
2022/02/09 18:06:17;;;;;;;13.65;7.22;;;;;;;;;;6156581;23;20012;-86
2022/02/09 18:25:14;;;;;;;8.98;6.93;;;;;;;;;;6156301;23;20024;-84
2022/02/09 18:28:42;;;;;;;14.30;8.43;;;;;;;;;;6156296;23;20002;-86
2022/02/09 18:31:09;;;;;;;13.65;7.45;;;;;;;;;;6155150;23;20340;-85
2022/02/09 18:33:52;;;;;;;12.38;7.55;;;;;;;;;;6157647;23;20387;-88
2022/02/09 18:44:55;;;;;;;13.55;7.65;;;;;;;;;;6159470;23;20388;-85
2022/02/09 18:47:48;;;;;;;11.70;7.75;;;;;;;;;;6158932;23;20302;-85
2022/02/09 18:59:23;;;;;;;10.93;7.70;;;;;;;;;;6159404;23;20092;-85
2022/02/09 19:01:56;;;;;;;12.57;9.13;;;;;;;;;;6159349;23;20016;-84
2022/02/09 19:14:51;;;;;;;16.80;8.77;;;;;;;;;;6159191;23;20100;-83
2022/02/09 19:17:35;;;;;;;15.75;9.38;;;;;;;;;;6159256;23;20005;-83
2022/02/09 19:30:54;;;;;;;15.25;10.23;;;;;;;;;;6159206;23;20012;-83
2022/02/09 19:47:16;;;;;;;30.38;18.23;;;;;;;;;;6158696;23;20068;-86
2022/02/09 19:57:13;;;;;;;49.72;26.33;;;;;;;;;;6164529;23;20409;-87
2022/02/09 19:59:40;;;;;;;40.17;20.30;;;;;;;;;;6157966;23;20006;-86
2022/02/09 20:02:08;;;;;;;44.75;22.23;;;;;;;;;;6156128;23;20018;-87
2022/02/09 20:04:34;;;;;;;67.13;32.85;;;;;;;;;;6157520;23;20417;-87
2022/02/09 20:07:00;;;;;;;31.48;19.00;;;;;;;;;;6157297;23;20002;-87
2022/02/09 20:09:26;;;;;;;28.80;16.33;;;;;;;;;;6157400;23;20084;-87
2022/02/09 20:11:53;;;;;;;21.73;14.05;;;;;;;;;;6157742;23;20045;-87
2022/02/09 20:14:19;;;;;;;22.85;13.40;;;;;;;;;;6157420;23;20001;-88
2022/02/09 20:16:45;;;;;;;24.15;14.95;;;;;;;;;;6155814;23;20013;-88
2022/02/09 20:19:12;;;;;;;20.90;13.63;;;;;;;;;;6157135;23;20002;-87
2022/02/09 20:21:37;;;;;;;20.80;14.38;;;;;;;;;;6131360;23;20026;-86
2022/02/09 20:24:04;;;;;;;28.35;15.48;;;;;;;;;;6157182;23;20080;-86
2022/02/09 20:26:30;;;;;;;23.65;16.35;;;;;;;;;;6131102;23;20005;-86
2022/02/09 20:29:01;;;;;;;21.83;15.80;;;;;;;;;;6157289;23;20067;-87
2022/02/09 20:31:31;;;;;;;20.63;13.90;;;;;;;;;;6157421;23;20390;-87
2022/02/09 20:34:12;;;;;;;22.75;14.20;;;;;;;;;;6131000;23;20010;-87
2022/02/09 20:36:41;;;;;;;21.55;13.68;;;;;;;;;;6157168;23;20001;-86
2022/02/09 20:39:07;;;;;;;25.95;16.35;;;;;;;;;;6157237;23;20327;-86
2022/02/09 20:41:34;;;;;;;24.08;16.10;;;;;;;;;;6155587;23;20009;-86
2022/02/09 20:44:18;;;;;;;25.60;16.10;;;;;;;;;;6157066;23;20012;-86
2022/02/09 20:46:44;;;;;;;28.83;17.63;;;;;;;;;;6157049;23;20002;-89
2022/02/09 20:49:09;;;;;;;28.02;18.83;;;;;;;;;;6131009;23;20020;-89
2022/02/09 20:51:35;;;;;;;26.40;16.48;;;;;;;;;;6156727;23;20043;-88
2022/02/09 20:54:01;;;;;;;25.17;17.80;;;;;;;;;;6157660;23;20072;-89
2022/02/09 20:56:26;;;;;;;24.95;16.30;;;;;;;;;;6130302;23;20010;-89
2022/02/09 20:58:58;;;;;;;30.42;18.95;;;;;;;;;;6131216;23;20006;-89
2022/02/09 21:01:32;;;;;;;29.38;17.65;;;;;;;;;;6157110;23;20002;-86
2022/02/09 21:04:03;;;;;;;27.38;16.58;;;;;;;;;;6157047;23;20001;-87
2022/02/09 21:17:33;;;;;;;32.53;18.83;;;;;;;;;;6043943;23;20489;-87
2022/02/09 21:57:50;;;;;;;24.33;15.55;;;;;;;;;;6162551;23;20006;-86
